Time;durP1;ratioP1;P1;durP2;ratioP2;P2;SDS_P1;SDS_P2;PMS_P1;PMS_P2;Temp;Humidity;BMP_temperature;BMP_pressure;BME280_temperature;BME280_humidity;BME280_pressure;Samples;Min_cycle;Max_cycle;Signal;HPM_P1;HPM_P2
2021/10/16 00:01:55;;;;;;;4.50;2.33;;;;;;;3.40;100.00;101116.19;5003567;28;20224;-74
2021/10/16 00:04:23;;;;;;;5.33;2.67;;;;;;;3.33;100.00;101116.09;5003070;28;20212;-73
2021/10/16 00:06:49;;;;;;;4.63;2.27;;;;;;;3.26;100.00;101122.91;5001494;28;20205;-73
2021/10/16 00:09:16;;;;;;;8.83;2.60;;;;;;;3.25;100.00;101113.41;5000182;28;20208;-73
2021/10/16 00:11:42;;;;;;;5.43;2.53;;;;;;;3.22;100.00;101119.41;5000940;28;20250;-72
2021/10/16 00:14:09;;;;;;;9.70;2.30;;;;;;;3.31;100.00;101115.22;5000491;28;20208;-73
2021/10/16 00:16:35;;;;;;;3.93;2.20;;;;;;;3.19;100.00;101116.78;4999109;28;20213;-73
2021/10/16 00:19:02;;;;;;;8.60;2.67;;;;;;;3.03;100.00;101122.63;5005093;28;20215;-73
2021/10/16 00:21:29;;;;;;;6.77;2.53;;;;;;;3.02;100.00;101120.88;5001970;28;20282;-73
2021/10/16 00:23:55;;;;;;;6.73;2.33;;;;;;;3.11;100.00;101120.97;5005402;28;20215;-74
2021/10/16 00:26:22;;;;;;;8.37;2.53;;;;;;;3.15;100.00;101129.63;5000995;28;20205;-73
2021/10/16 00:28:49;;;;;;;7.63;2.70;;;;;;;3.07;100.00;101131.25;5000207;28;20213;-74
2021/10/16 00:31:15;;;;;;;6.20;2.50;;;;;;;3.05;100.00;101138.09;4999800;28;20354;-73
2021/10/16 00:33:41;;;;;;;7.57;2.60;;;;;;;3.05;100.00;101136.38;5003387;28;20209;-73
2021/10/16 00:36:08;;;;;;;6.87;2.43;;;;;;;3.12;100.00;101132.19;5004336;28;20616;-72
2021/10/16 00:38:36;;;;;;;9.53;2.70;;;;;;;3.05;100.00;101130.38;4997557;28;20211;-72
2021/10/16 00:41:02;;;;;;;10.50;2.60;;;;;;;3.06;100.00;101130.41;4999791;28;20231;-74
2021/10/16 00:43:29;;;;;;;4.30;2.27;;;;;;;3.12;100.00;101134.75;4998815;28;20441;-75
2021/10/16 00:45:56;;;;;;;3.83;2.70;;;;;;;3.06;100.00;101132.97;5005879;28;20208;-74
2021/10/16 00:48:22;;;;;;;6.77;2.70;;;;;;;3.04;100.00;101134.63;4998469;28;20335;-73
2021/10/16 00:50:49;;;;;;;7.73;3.00;;;;;;;3.01;100.00;101137.19;4999594;28;20220;-73
2021/10/16 00:53:16;;;;;;;11.57;3.10;;;;;;;3.09;100.00;101137.28;5001849;28;20684;-73
2021/10/16 00:55:44;;;;;;;6.93;2.87;;;;;;;3.12;100.00;101133.03;5000534;28;20617;-73
2021/10/16 00:58:12;;;;;;;6.80;3.07;;;;;;;3.17;100.00;101136.53;5007326;28;20212;-73
2021/10/16 01:00:38;;;;;;;8.13;2.97;;;;;;;3.14;100.00;101143.34;5000805;28;20228;-73
2021/10/16 01:03:04;;;;;;;12.73;2.93;;;;;;;3.14;100.00;101144.22;5000475;28;20213;-72
2021/10/16 01:05:33;;;;;;;8.27;3.17;;;;;;;3.25;100.00;101134.03;4998661;28;20220;-73
2021/10/16 01:08:00;;;;;;;4.03;2.37;;;;;;;3.11;100.00;101143.31;5003081;28;20212;-73
2021/10/16 01:10:27;;;;;;;12.10;2.97;;;;;;;3.00;100.00;101133.72;5012188;28;20226;-72
2021/10/16 01:12:55;;;;;;;7.73;2.80;;;;;;;2.93;100.00;101138.78;5004259;28;20251;-72
2021/10/16 01:15:23;;;;;;;9.60;3.17;;;;;;;2.86;100.00;101139.56;4997582;28;20749;-72
2021/10/16 01:17:49;;;;;;;5.73;3.43;;;;;;;2.86;100.00;101137.84;5001531;28;20213;-74
2021/10/16 01:20:18;;;;;;;11.37;3.20;;;;;;;2.95;100.00;101142.25;5002648;28;20298;-74
2021/10/16 01:22:48;;;;;;;7.60;2.63;;;;;;;2.94;100.00;101127.66;4998591;28;20606;-73
2021/10/16 01:25:17;;;;;;;6.90;3.00;;;;;;;2.91;100.00;101138.75;4999616;28;20214;-73
2021/10/16 01:27:43;;;;;;;8.87;3.07;;;;;;;2.98;100.00;101127.69;5001041;28;20277;-72
2021/10/16 01:30:13;;;;;;;9.00;3.17;;;;;;;2.97;100.00;101132.81;5000616;28;20229;-73
2021/10/16 01:32:40;;;;;;;4.17;2.33;;;;;;;2.92;100.00;101131.91;5002542;28;20205;-73
2021/10/16 01:35:09;;;;;;;5.03;2.63;;;;;;;2.81;100.00;101129.19;5001930;28;20201;-73
2021/10/16 01:37:38;;;;;;;6.53;3.20;;;;;;;2.85;100.00;101128.41;4998205;28;20232;-73
2021/10/16 01:40:08;;;;;;;8.83;3.23;;;;;;;2.78;100.00;101129.13;4997806;28;20237;-74
2021/10/16 01:42:36;;;;;;;12.23;3.30;;;;;;;2.79;100.00;101128.28;4996528;28;20242;-74
2021/10/16 01:45:04;;;;;;;9.80;3.30;;;;;;;2.82;100.00;101126.63;4998335;28;20276;-75
2021/10/16 01:47:31;;;;;;;7.50;2.77;;;;;;;2.86;100.00;101131.81;4995565;28;20559;-75
2021/10/16 01:49:58;;;;;;;11.33;2.90;;;;;;;2.86;100.00;101132.69;4998768;28;20256;-75
2021/10/16 01:52:25;;;;;;;11.97;3.70;;;;;;;2.76;100.00;101133.41;5001530;28;20302;-74
2021/10/16 01:54:55;;;;;;;6.50;2.97;;;;;;;2.75;100.00;101149.72;4993976;28;20208;-74
2021/10/16 01:57:22;;;;;;;9.10;3.10;;;;;;;2.86;100.00;101143.00;4999475;28;20215;-73
2021/10/16 01:59:56;;;;;;;8.03;2.90;;;;;;;2.83;100.00;101146.41;4998009;28;20231;-73
2021/10/16 02:02:34;;;;;;;6.77;3.53;;;;;;;2.89;100.00;101155.06;4979469;28;20227;-73
2021/10/16 02:05:19;;;;;;;8.50;3.30;;;;;;;3.00;100.00;101153.47;4981929;28;20209;-74
2021/10/16 02:07:54;;;;;;;8.63;3.27;;;;;;;3.02;100.00;101154.38;4978787;28;20212;-72
2021/10/16 02:10:20;;;;;;;12.07;3.27;;;;;;;2.95;100.00;101143.09;4995242;28;20745;-74
2021/10/16 02:12:48;;;;;;;9.47;3.20;;;;;;;2.86;100.00;101149.84;4994679;28;20205;-72
2021/10/16 02:15:15;;;;;;;11.43;3.73;;;;;;;2.86;100.00;101149.84;4981657;28;20726;-74
2021/10/16 02:18:14;;;;;;;9.10;3.63;;;;;;;2.78;100.00;101149.72;4981124;28;20213;-73
2021/10/16 02:20:40;;;;;;;7.63;3.07;;;;;;;2.80;100.00;101148.94;4978764;28;20225;-74
2021/10/16 02:23:06;;;;;;;9.00;3.80;;;;;;;2.88;100.00;101153.31;4983411;28;20199;-74
2021/10/16 02:25:37;;;;;;;14.07;3.60;;;;;;;2.79;100.00;101149.75;4992549;28;20213;-73
2021/10/16 02:28:05;;;;;;;7.57;3.33;;;;;;;2.64;100.00;101158.13;4981943;28;20215;-73
2021/10/16 02:30:33;;;;;;;10.13;3.33;;;;;;;2.58;100.00;101163.19;4994243;28;20235;-74
2021/10/16 02:33:00;;;;;;;9.77;3.67;;;;;;;2.68;100.00;101161.63;4996909;28;20267;-74
2021/10/16 02:35:28;;;;;;;8.50;3.47;;;;;;;2.66;100.00;101163.31;4980880;28;20743;-74
2021/10/16 02:37:55;;;;;;;8.93;3.60;;;;;;;2.79;100.00;101161.78;4994716;28;20712;-74
2021/10/16 02:40:21;;;;;;;6.67;3.77;;;;;;;2.62;100.00;101162.41;4980039;28;20271;-74
2021/10/16 02:42:48;;;;;;;9.97;3.53;;;;;;;2.71;100.00;101165.94;4995927;28;20292;-73
2021/10/16 02:45:17;;;;;;;8.50;3.70;;;;;;;2.59;100.00;101171.78;4980756;28;20614;-73
2021/10/16 02:47:44;;;;;;;12.17;3.70;;;;;;;2.55;100.00;101176.03;4993072;28;20700;-74
2021/10/16 02:50:11;;;;;;;8.97;3.40;;;;;;;2.45;100.00;101174.16;4982102;28;20299;-72
2021/10/16 02:52:38;;;;;;;10.63;3.10;;;;;;;2.54;100.00;101182.00;4996998;28;20207;-73
2021/10/16 02:55:05;;;;;;;10.87;4.13;;;;;;;2.54;100.00;101182.00;4999457;28;20212;-74
2021/10/16 02:57:49;;;;;;;13.13;3.90;;;;;;;2.36;100.00;101180.00;4983010;28;20918;-74
2021/10/16 03:00:17;;;;;;;12.50;4.07;;;;;;;2.46;100.00;101183.59;4982626;28;20236;-74
2021/10/16 03:02:44;;;;;;;11.17;3.63;;;;;;;2.36;100.00;101192.88;4980235;28;20213;-74
2021/10/16 03:05:11;;;;;;;5.93;3.60;;;;;;;2.44;100.00;101190.41;4979171;28;20219;-74
2021/10/16 03:07:37;;;;;;;8.53;3.93;;;;;;;2.26;100.00;101196.13;4980339;28;20205;-73
2021/10/16 03:10:05;;;;;;;8.67;3.57;;;;;;;2.47;100.00;101193.91;4993027;28;20206;-73
2021/10/16 03:12:31;;;;;;;13.03;4.47;;;;;;;2.31;100.00;101199.66;4982718;28;20714;-72
2021/10/16 03:15:01;;;;;;;13.63;4.37;;;;;;;2.47;100.00;101198.19;4980858;28;20240;-73
2021/10/16 03:17:30;;;;;;;8.40;4.07;;;;;;;2.39;100.00;101199.78;4981841;28;20633;-74
2021/10/16 03:19:57;;;;;;;15.03;4.13;;;;;;;2.54;100.00;101204.31;4980853;28;20203;-73
2021/10/16 03:22:24;;;;;;;12.23;3.70;;;;;;;2.43;100.00;101206.72;4979155;28;20251;-73
2021/10/16 03:24:51;;;;;;;10.20;3.83;;;;;;;2.25;100.00;101207.25;5001351;28;20316;-73
2021/10/16 03:27:17;;;;;;;9.03;4.73;;;;;;;2.40;100.00;101207.53;4980016;28;20207;-74
2021/10/16 03:29:43;;;;;;;13.07;4.17;;;;;;;2.25;100.00;101209.81;4984663;28;20216;-74
2021/10/16 03:32:10;;;;;;;12.17;4.10;;;;;;;2.10;100.00;101218.16;4983738;28;20245;-73
2021/10/16 03:34:39;;;;;;;11.70;3.97;;;;;;;2.11;100.00;101214.75;4984237;28;20210;-74
2021/10/16 03:37:06;;;;;;;9.07;4.63;;;;;;;2.13;100.00;101207.03;4979823;28;20206;-73
2021/10/16 03:39:34;;;;;;;12.67;4.60;;;;;;;2.13;100.00;101210.50;4982705;28;20707;-73
2021/10/16 03:42:00;;;;;;;11.43;3.70;;;;;;;2.18;100.00;101216.59;4982629;28;20225;-73
2021/10/16 03:44:28;;;;;;;9.83;4.27;;;;;;;2.16;100.00;101212.25;4984585;28;20209;-74
2021/10/16 03:46:56;;;;;;;10.70;4.27;;;;;;;2.15;100.00;101224.25;4982980;28;20270;-74
2021/10/16 03:49:23;;;;;;;9.93;3.83;;;;;;;2.21;100.00;101223.50;4983302;28;20207;-74
2021/10/16 03:51:51;;;;;;;7.93;4.23;;;;;;;2.27;100.00;101226.19;4986936;28;20854;-74
2021/10/16 03:54:18;;;;;;;14.53;4.27;;;;;;;2.27;100.00;101224.47;4985565;28;20212;-74
2021/10/16 03:56:45;;;;;;;17.67;4.60;;;;;;;2.31;100.00;101227.97;4981996;28;20310;-73
2021/10/16 03:59:12;;;;;;;10.07;4.33;;;;;;;2.39;100.00;101218.69;4997130;28;20685;-73
2021/10/16 04:01:40;;;;;;;13.23;4.30;;;;;;;2.38;100.00;101234.09;4986610;28;20770;-74
2021/10/16 04:04:06;;;;;;;7.30;3.70;;;;;;;2.40;100.00;101233.25;4986919;28;20215;-74
2021/10/16 04:06:32;;;;;;;11.37;4.77;;;;;;;2.29;100.00;101237.38;4981123;28;20207;-73
2021/10/16 04:09:00;;;;;;;7.67;3.97;;;;;;;2.36;100.00;101239.22;4997610;28;20406;-73
2021/10/16 04:11:27;;;;;;;20.13;4.43;;;;;;;2.37;100.00;101234.91;4983361;28;20229;-73
2021/10/16 04:13:53;;;;;;;9.30;4.27;;;;;;;2.39;100.00;101241.84;4985630;28;20209;-72
2021/10/16 04:16:19;;;;;;;9.90;4.00;;;;;;;2.35;100.00;101234.88;4982745;28;20552;-72
2021/10/16 04:18:46;;;;;;;11.30;4.27;;;;;;;2.31;100.00;101240.84;4984597;28;20219;-73
2021/10/16 04:21:13;;;;;;;10.17;3.87;;;;;;;2.20;100.00;101239.75;4981547;28;20231;-73
2021/10/16 04:23:43;;;;;;;17.10;4.47;;;;;;;2.07;100.00;101238.66;5000646;28;20202;-72
2021/10/16 04:26:11;;;;;;;7.33;4.20;;;;;;;2.06;100.00;101236.97;4984215;28;20295;-73
2021/10/16 04:28:37;;;;;;;8.80;3.90;;;;;;;2.07;100.00;101243.81;4981014;28;20212;-73
2021/10/16 04:31:24;;;;;;;13.20;4.60;;;;;;;2.18;100.00;101244.00;4979933;28;20224;-72
2021/10/16 04:33:50;;;;;;;10.17;4.70;;;;;;;2.18;100.00;101244.00;4981909;28;20215;-72
2021/10/16 04:36:17;;;;;;;13.47;4.57;;;;;;;2.22;100.00;101249.25;4982953;28;20208;-74
2021/10/16 04:38:46;;;;;;;10.83;4.07;;;;;;;2.34;100.00;101238.31;4981948;28;20267;-74
2021/10/16 04:41:15;;;;;;;8.03;4.50;;;;;;;2.35;100.00;101247.75;4987085;28;20284;-74
2021/10/16 04:43:44;;;;;;;15.17;4.40;;;;;;;2.42;100.00;101251.31;4984763;28;20210;-74
2021/10/16 04:46:11;;;;;;;9.93;4.20;;;;;;;2.43;100.00;101255.63;4981952;28;20223;-73
2021/10/16 04:48:39;;;;;;;12.03;4.30;;;;;;;2.46;100.00;101253.09;4997199;28;20283;-73
2021/10/16 04:51:06;;;;;;;9.77;4.40;;;;;;;2.49;100.00;101249.72;4995414;28;20263;-74
2021/10/16 04:53:34;;;;;;;12.90;4.97;;;;;;;2.54;100.00;101255.81;5000117;28;20199;-74
2021/10/16 04:56:00;;;;;;;18.10;5.23;;;;;;;2.48;100.00;101256.56;4979797;28;20208;-74
2021/10/16 04:58:28;;;;;;;11.73;4.17;;;;;;;2.54;100.00;101251.50;4980654;28;20718;-73
2021/10/16 05:00:54;;;;;;;11.00;4.77;;;;;;;2.56;100.00;101248.97;4997114;28;20234;-73
2021/10/16 05:03:21;;;;;;;12.40;4.10;;;;;;;2.54;100.00;101254.09;4983197;28;20228;-73
2021/10/16 05:05:49;;;;;;;11.47;4.47;;;;;;;2.47;100.00;101263.41;4982117;28;20589;-74
2021/10/16 05:08:18;;;;;;;8.20;4.27;;;;;;;2.43;100.00;101255.63;4998146;28;20216;-74
2021/10/16 05:10:46;;;;;;;13.87;5.03;;;;;;;2.36;100.00;101258.94;4993052;28;20227;-73
2021/10/16 05:13:14;;;;;;;16.60;4.20;;;;;;;2.28;100.00;101257.06;4982461;28;20204;-73
2021/10/16 05:15:43;;;;;;;12.13;4.57;;;;;;;2.26;100.00;101263.91;4998201;28;20203;-73
2021/10/16 05:18:12;;;;;;;14.77;4.30;;;;;;;2.16;100.00;101268.84;4981022;28;20207;-74
2021/10/16 05:20:49;;;;;;;14.47;5.33;;;;;;;2.22;100.00;101274.97;4984384;28;20232;-72
2021/10/16 05:23:17;;;;;;;13.23;5.60;;;;;;;2.16;100.00;101271.44;4996886;28;20225;-74
2021/10/16 05:25:43;;;;;;;11.77;6.10;;;;;;;2.17;100.00;101270.59;4982797;28;20206;-74
2021/10/16 05:28:10;;;;;;;17.53;5.40;;;;;;;2.22;100.00;101269.84;4981408;28;22526;-74
2021/10/16 05:30:37;;;;;;;13.30;5.47;;;;;;;2.15;100.00;101275.72;4997867;28;20239;-73
2021/10/16 05:33:05;;;;;;;16.13;6.90;;;;;;;1.98;100.00;101265.09;4998069;28;20206;-74
2021/10/16 05:35:31;;;;;;;17.80;7.20;;;;;;;2.13;100.00;101269.69;4981380;28;20216;-73
2021/10/16 05:37:58;;;;;;;13.30;6.60;;;;;;;2.07;100.00;101270.41;4982254;28;20213;-74
2021/10/16 05:40:25;;;;;;;14.77;7.27;;;;;;;2.04;100.00;101272.94;4979346;28;20263;-74
2021/10/16 05:42:51;;;;;;;17.27;7.40;;;;;;;2.13;100.00;101273.94;4985599;28;20600;-72
2021/10/16 05:45:18;;;;;;;20.27;9.63;;;;;;;2.07;100.00;101279.84;4982630;28;20268;-74
2021/10/16 05:47:46;;;;;;;30.03;10.20;;;;;;;2.04;100.00;101279.75;4997602;28;20217;-74
2021/10/16 05:50:14;;;;;;;25.83;10.00;;;;;;;2.08;100.00;101282.44;4981616;28;20211;-74
2021/10/16 05:52:40;;;;;;;40.70;14.73;;;;;;;2.22;100.00;101290.44;4979783;28;20798;-73
2021/10/16 05:55:08;;;;;;;76.87;20.63;;;;;;;2.20;100.00;101283.50;4985690;28;20225;-73
2021/10/16 05:57:35;;;;;;;63.77;19.70;;;;;;;2.29;100.00;101293.97;4979353;28;20789;-74
2021/10/16 06:00:01;;;;;;;49.33;17.83;;;;;;;2.36;100.00;101295.81;4984372;28;20205;-74
2021/10/16 06:02:32;;;;;;;55.47;18.30;;;;;;;2.43;100.00;101300.25;4978361;28;20227;-74
2021/10/16 06:04:59;;;;;;;35.53;13.60;;;;;;;2.43;100.00;101300.25;4984358;28;20251;-74
2021/10/16 06:07:26;;;;;;;41.30;13.40;;;;;;;2.58;100.00;101299.63;4994150;28;20240;-73
2021/10/16 06:09:53;;;;;;;36.17;11.27;;;;;;;2.73;100.00;101301.63;4983002;28;20705;-73
2021/10/16 06:12:20;;;;;;;41.73;12.07;;;;;;;2.76;100.00;101309.41;4980146;28;20673;-73
2021/10/16 06:14:46;;;;;;;102.77;28.43;;;;;;;2.85;100.00;101308.69;4983165;28;20686;-74
2021/10/16 06:17:24;;;;;;;61.30;17.53;;;;;;;2.88;100.00;101307.88;4986305;28;20578;-74
2021/10/16 06:19:52;;;;;;;22.77;10.43;;;;;;;2.99;100.00;101308.88;4978769;28;20209;-73
2021/10/16 06:22:19;;;;;;;28.73;9.97;;;;;;;3.11;100.00;101319.38;4982913;28;20231;-74
2021/10/16 06:24:46;;;;;;;17.20;6.73;;;;;;;3.14;100.00;101310.84;4978240;28;20218;-73
2021/10/16 06:27:13;;;;;;;23.47;6.93;;;;;;;3.13;100.00;101312.56;4980962;28;20769;-74
2021/10/16 06:29:39;;;;;;;19.37;6.27;;;;;;;3.28;100.00;101313.66;4979163;28;20679;-73
2021/10/16 06:32:06;;;;;;;12.43;5.47;;;;;;;3.39;100.00;101323.28;5002045;28;20721;-74
2021/10/16 06:34:32;;;;;;;22.13;6.40;;;;;;;3.53;100.00;101322.59;4980519;28;20217;-74
2021/10/16 06:36:59;;;;;;;19.00;7.20;;;;;;;3.61;100.00;101326.16;4978163;28;20214;-73
2021/10/16 06:39:27;;;;;;;22.37;7.80;;;;;;;3.64;100.00;101326.19;4997892;28;20216;-74
2021/10/16 06:42:00;;;;;;;17.80;6.57;;;;;;;3.65;100.00;101324.47;4993810;28;20227;-74
2021/10/16 06:44:26;;;;;;;24.00;10.07;;;;;;;3.76;100.00;101328.94;4983996;28;20241;-73
2021/10/16 06:47:06;;;;;;;31.43;16.03;;;;;;;3.88;100.00;101330.78;4980155;28;20204;-74
2021/10/16 06:49:35;;;;;;;27.37;11.90;;;;;;;3.98;100.00;101335.22;4980635;28;20753;-74
2021/10/16 06:52:01;;;;;;;30.20;11.20;;;;;;;3.97;100.00;101341.25;4979108;28;20710;-73
2021/10/16 06:54:27;;;;;;;33.80;13.90;;;;;;;4.09;100.00;101348.25;4982446;28;20209;-74
2021/10/16 06:56:54;;;;;;;33.03;13.33;;;;;;;4.11;100.00;101343.97;4983691;28;20279;-74
2021/10/16 06:59:22;;;;;;;27.43;11.40;;;;;;;4.20;100.00;101350.09;4983157;28;20213;-75
2021/10/16 07:01:49;;;;;;;27.67;11.27;;;;;;;4.15;100.00;101355.19;5000355;28;20232;-75
2021/10/16 07:04:20;;;;;;;32.07;10.17;;;;;;;4.18;100.00;101350.06;4995289;28;20202;-74
2021/10/16 07:06:51;;;;;;;18.50;8.53;;;;;;;4.21;100.00;101357.88;4985269;28;20209;-74
2021/10/16 07:09:25;;;;;;;25.93;9.10;;;;;;;4.32;100.00;101358.84;4996295;28;20268;-73
2021/10/16 07:11:51;;;;;;;16.00;8.13;;;;;;;4.38;100.00;101357.19;4986933;28;20232;-74
2021/10/16 07:14:18;;;;;;;18.73;8.27;;;;;;;4.46;100.00;101355.56;4982629;28;20205;-74
2021/10/16 07:16:47;;;;;;;14.13;7.30;;;;;;;4.53;100.00;101360.78;4985245;28;20214;-74
2021/10/16 07:19:13;;;;;;;18.23;7.93;;;;;;;4.59;100.00;101361.72;4984747;28;20208;-74
2021/10/16 07:21:39;;;;;;;17.13;7.43;;;;;;;4.64;100.00;101354.88;4980233;28;20229;-74
2021/10/16 07:24:06;;;;;;;22.60;7.27;;;;;;;4.74;100.00;101360.16;4985551;28;20217;-75
2021/10/16 07:26:32;;;;;;;24.60;7.83;;;;;;;4.85;100.00;101369.72;4982793;28;20228;-73
2021/10/16 07:28:59;;;;;;;20.47;7.93;;;;;;;4.92;100.00;101367.22;4986887;28;20216;-74
2021/10/16 07:31:28;;;;;;;21.70;7.47;;;;;;;4.96;100.00;101364.66;4983139;28;20242;-74
2021/10/16 07:33:56;;;;;;;22.87;7.37;;;;;;;5.10;100.00;101365.63;4988477;28;20713;-75
2021/10/16 07:36:23;;;;;;;28.13;7.60;;;;;;;5.18;100.00;101366.56;4983993;28;20221;-74
2021/10/16 07:38:49;;;;;;;24.37;8.20;;;;;;;5.23;100.00;101367.47;4982959;28;20216;-74
2021/10/16 07:41:16;;;;;;;25.07;8.00;;;;;;;5.29;100.00;101377.88;4983138;28;20225;-75
2021/10/16 07:43:42;;;;;;;20.70;7.17;;;;;;;5.37;100.00;101382.22;4984509;28;20646;-72
2021/10/16 07:46:08;;;;;;;22.27;7.47;;;;;;;5.40;100.00;101383.13;4985430;28;20197;-73
2021/10/16 07:48:35;;;;;;;22.43;6.50;;;;;;;5.49;100.00;101380.59;4979481;28;20218;-73
2021/10/16 07:51:02;;;;;;;17.00;8.27;;;;;;;5.54;100.00;101395.25;4981383;28;20280;-73
2021/10/16 07:53:29;;;;;;;19.93;8.40;;;;;;;5.57;100.00;101396.16;4978760;28;20217;-75
2021/10/16 07:55:55;;;;;;;24.17;10.73;;;;;;;5.65;100.00;101396.22;4984098;28;20220;-72
2021/10/16 07:58:22;;;;;;;22.77;7.23;;;;;;;5.76;100.00;101391.97;4977051;28;20213;-74
2021/10/16 08:00:48;;;;;;;14.37;7.57;;;;;;;5.83;100.00;101393.72;4997941;23;20699;-73
2021/10/16 08:03:15;;;;;;;18.53;7.90;;;;;;;5.89;100.00;101390.31;4983929;28;20591;-74
2021/10/16 08:05:41;;;;;;;22.07;9.47;;;;;;;5.94;100.00;101383.44;4985423;28;20213;-72
2021/10/16 08:08:10;;;;;;;21.63;9.33;;;;;;;5.88;100.00;101401.53;4985020;28;20583;-72
2021/10/16 08:10:37;;;;;;;25.13;8.03;;;;;;;5.92;100.00;101394.66;4981779;28;21177;-73
2021/10/16 08:13:03;;;;;;;19.93;8.20;;;;;;;6.06;100.00;101393.03;4983106;28;20248;-71
2021/10/16 08:15:29;;;;;;;30.63;7.80;;;;;;;6.21;100.00;101402.59;4984122;28;20767;-73
2021/10/16 08:17:56;;;;;;;27.10;8.20;;;;;;;6.31;100.00;101393.13;4989391;28;20213;-73
2021/10/16 08:20:22;;;;;;;31.37;9.70;;;;;;;6.45;100.00;101396.63;4982151;28;20529;-73
2021/10/16 08:22:49;;;;;;;27.53;8.10;;;;;;;6.56;100.00;101402.72;4987295;28;20842;-73
2021/10/16 08:25:16;;;;;;;20.77;8.80;;;;;;;6.58;100.00;101402.72;4984092;28;20205;-72
2021/10/16 08:27:46;;;;;;;25.43;8.97;;;;;;;6.63;100.00;101403.56;4986698;28;20206;-73
2021/10/16 08:30:13;;;;;;;25.60;11.30;;;;;;;6.70;100.00;101399.28;4986666;28;20197;-73
2021/10/16 08:32:40;;;;;;;27.03;12.77;;;;;;;6.79;100.00;101401.91;4983329;28;20244;-72
2021/10/16 08:35:08;;;;;;;22.90;10.70;;;;;;;6.84;100.00;101405.34;4986141;28;20777;-73
2021/10/16 08:37:35;;;;;;;28.30;11.57;;;;;;;6.96;100.00;101405.38;4978179;28;20213;-72
2021/10/16 08:40:01;;;;;;;24.57;10.80;;;;;;;7.01;100.00;101410.56;4976936;28;20237;-72
2021/10/16 08:42:29;;;;;;;19.43;10.63;;;;;;;7.03;100.00;101410.56;4980150;28;21416;-73
2021/10/16 08:44:59;;;;;;;18.77;10.10;;;;;;;7.01;100.00;101414.03;4985207;28;20299;-73
2021/10/16 08:47:28;;;;;;;25.60;12.27;;;;;;;7.09;100.00;101411.44;4981692;28;20577;-74
2021/10/16 08:49:57;;;;;;;30.40;12.53;;;;;;;7.03;100.00;101403.66;4981925;28;20538;-73
2021/10/16 08:52:23;;;;;;;27.70;12.93;;;;;;;7.03;100.00;101406.25;4988267;28;20698;-73
2021/10/16 08:54:49;;;;;;;22.33;11.60;;;;;;;7.15;100.00;101401.06;4985772;28;20213;-74
2021/10/16 08:57:16;;;;;;;26.80;12.13;;;;;;;7.20;100.00;101401.94;4988543;28;20273;-73
2021/10/16 08:59:43;;;;;;;29.63;12.43;;;;;;;7.39;100.00;101399.34;4981939;28;20236;-73
2021/10/16 09:02:10;;;;;;;33.17;13.17;;;;;;;7.64;100.00;101400.19;4989221;28;20240;-73
2021/10/16 09:04:36;;;;;;;28.83;12.73;;;;;;;7.73;100.00;101401.91;4979063;28;20229;-73
2021/10/16 09:07:19;;;;;;;29.63;12.37;;;;;;;7.83;100.00;101401.00;4981664;28;20220;-73
2021/10/16 09:09:45;;;;;;;27.33;11.70;;;;;;;7.90;100.00;101394.94;4982249;28;20228;-73
2021/10/16 09:12:12;;;;;;;28.37;11.83;;;;;;;7.93;100.00;101400.13;4983631;28;20218;-73
2021/10/16 09:14:46;;;;;;;25.07;11.10;;;;;;;8.00;100.00;101400.94;4983774;28;20542;-72
2021/10/16 09:17:14;;;;;;;22.53;11.07;;;;;;;8.32;100.00;101400.00;4977276;28;20224;-73
2021/10/16 09:19:40;;;;;;;34.77;11.67;;;;;;;8.40;100.00;101406.00;4983077;28;20564;-73
2021/10/16 09:22:09;;;;;;;21.27;9.90;;;;;;;8.46;100.00;101403.41;4977699;28;20239;-73
2021/10/16 09:24:38;;;;;;;25.10;11.13;;;;;;;8.45;100.00;101411.22;4981623;28;20223;-73
2021/10/16 09:27:06;;;;;;;22.37;10.13;;;;;;;8.65;100.00;101413.69;4980395;28;20208;-72
2021/10/16 09:29:34;;;;;;;25.13;11.83;;;;;;;8.86;100.00;101408.38;4982357;28;20205;-73
2021/10/16 09:32:04;;;;;;;24.23;11.33;;;;;;;8.95;100.00;101407.44;4981420;28;20227;-72
2021/10/16 09:34:32;;;;;;;22.40;10.13;;;;;;;9.13;100.00;101411.66;4982695;28;20796;-73
2021/10/16 09:37:06;;;;;;;19.00;7.60;;;;;;;9.07;100.00;101412.56;4978878;28;20209;-72
2021/10/16 09:39:34;;;;;;;20.77;9.33;;;;;;;9.22;100.00;101409.00;4978966;28;20236;-73
2021/10/16 09:42:01;;;;;;;21.47;8.90;;;;;;;9.57;100.00;101410.44;4996893;28;20227;-73
2021/10/16 09:44:29;;;;;;;18.93;7.50;;;;;;;9.71;100.00;101405.09;4978529;28;20673;-73
2021/10/16 09:47:01;;;;;;;21.43;6.33;;;;;;;9.89;100.00;101413.59;4979016;28;20201;-73
2021/10/16 09:49:35;;;;;;;18.23;6.40;;;;;;;10.21;100.00;101408.84;4979851;28;20844;-74
2021/10/16 09:52:02;;;;;;;16.10;5.73;;;;;;;10.35;100.00;101411.31;4980085;28;20742;-73
2021/10/16 09:54:30;;;;;;;15.20;5.07;;;;;;;10.43;100.00;101413.84;4981780;28;20205;-73
2021/10/16 09:56:58;;;;;;;16.93;5.00;;;;;;;10.51;100.00;101419.81;4978323;28;20212;-72
2021/10/16 09:59:26;;;;;;;14.27;4.63;;;;;;;10.56;100.00;101418.00;4977796;28;20622;-73
2021/10/16 10:01:53;;;;;;;14.27;4.70;;;;;;;10.49;100.00;101418.13;4975912;28;20230;-73
2021/10/16 10:04:23;;;;;;;13.70;4.13;;;;;;;10.46;100.00;101423.38;4974804;28;20228;-73
2021/10/16 10:06:51;;;;;;;14.47;4.37;;;;;;;10.36;100.00;101433.91;4976424;28;20621;-73
2021/10/16 10:09:18;;;;;;;10.57;3.70;;;;;;;10.38;100.00;101426.94;4973578;28;20212;-73
2021/10/16 10:11:47;;;;;;;10.20;3.47;;;;;;;10.40;100.00;101432.13;4991514;28;20282;-72
2021/10/16 10:14:17;;;;;;;8.17;3.03;;;;;;;10.45;100.00;101435.53;4974113;28;20881;-73
2021/10/16 10:16:44;;;;;;;10.30;3.73;;;;;;;10.46;100.00;101436.41;4971371;28;20473;-73
2021/10/16 10:19:12;;;;;;;13.50;3.57;;;;;;;10.48;100.00;101435.47;4974144;28;20214;-73
2021/10/16 10:21:39;;;;;;;8.93;3.23;;;;;;;10.52;100.00;101431.13;4979932;28;20734;-71
2021/10/16 10:24:10;;;;;;;10.43;3.30;;;;;;;10.56;100.00;101438.88;4975372;28;20610;-73
2021/10/16 10:26:38;;;;;;;10.37;3.50;;;;;;;10.65;100.00;101437.88;4981454;28;20209;-73
2021/10/16 10:29:06;;;;;;;13.27;3.57;;;;;;;10.69;100.00;101434.34;4976310;28;20206;-73
2021/10/16 10:31:59;;;;;;;12.20;3.53;;;;;;;10.59;100.00;101440.59;4979880;28;20371;-73
2021/10/16 10:34:31;;;;;;;9.33;2.80;;;;;;;10.54;99.81;101450.22;4983074;28;20207;-71
2021/10/16 10:37:01;;;;;;;15.17;4.23;;;;;;;10.55;100.00;101449.31;4981179;28;20214;-73
2021/10/16 10:40:00;;;;;;;11.13;3.23;;;;;;;10.51;100.00;101443.28;4998424;28;20204;-73
2021/10/16 10:42:44;;;;;;;10.23;4.03;;;;;;;10.49;99.21;101457.22;4943100;28;20225;-73
2021/10/16 10:45:25;;;;;;;13.67;4.17;;;;;;;10.49;99.49;101452.00;4977682;28;20240;-72
2021/10/16 10:48:10;;;;;;;12.43;4.10;;;;;;;10.53;99.62;101445.88;4983371;28;20241;-73
2021/10/16 10:50:48;;;;;;;11.47;4.10;;;;;;;10.58;100.00;101433.63;4986533;28;20211;-72
2021/10/16 10:53:26;;;;;;;13.70;6.60;;;;;;;10.64;99.95;101436.19;4987331;28;20209;-73
2021/10/16 10:55:56;;;;;;;14.13;6.07;;;;;;;10.56;96.33;101440.63;4981589;28;20223;-72
2021/10/16 10:58:23;;;;;;;9.73;5.97;;;;;;;10.57;98.24;101435.38;4983438;28;20212;-73
2021/10/16 11:00:52;;;;;;;11.00;5.53;;;;;;;10.51;96.79;101430.25;4983512;28;20203;-73
2021/10/16 11:03:44;;;;;;;10.23;5.20;;;;;;;10.56;97.00;101433.66;4981566;28;20210;-73
2021/10/16 11:06:20;;;;;;;11.97;4.20;;;;;;;10.64;98.35;101423.13;4989242;28;20257;-73
2021/10/16 11:08:49;;;;;;;15.47;4.80;;;;;;;10.65;96.35;101432.66;4983502;28;20216;-72
2021/10/16 11:11:17;;;;;;;11.53;4.60;;;;;;;10.78;99.27;101413.38;4979732;28;20959;-73
2021/10/16 11:13:44;;;;;;;7.63;3.57;;;;;;;10.84;100.00;101416.78;4988806;28;20211;-73
2021/10/16 11:16:10;;;;;;;8.33;3.90;;;;;;;10.77;98.75;101418.59;4982750;28;20448;-72
2021/10/16 11:18:37;;;;;;;8.33;3.00;;;;;;;10.70;96.59;101414.34;4978646;28;20211;-73
2021/10/16 11:21:07;;;;;;;11.07;3.07;;;;;;;10.66;99.55;101417.88;4981917;28;20231;-73
2021/10/16 11:23:38;;;;;;;8.70;2.63;;;;;;;10.63;99.42;101416.19;4982811;28;20679;-73